»·PEaware :: N6182G KVCV-KSNA

N6182G :: KVCV-KSNA

FLIGHT INFORMATION

Flight Status: Arrived
Operator: Privately registered:
United States
More flights under this callsign
Pilot: Thiago S. (19132)
Aircraft: CESSNA 182 SKYLANE
(C182)
More flights by this aircraft type
Origin: KVCV Socal Logistics
United States
Destination: KSNA John Wayne-Orange Co
United States
More flights between these airports :: More routes between these airports
Route: DCT
File this flight plan on PilotEdge
Remarks:
Altitude:
(Current/Filed)
VFR
Speed:
(Current/Filed)
120kts
Departed: 25-Feb-19 05:32 PM
Arrived: 25-Feb-19 06:07 PM
Distance/Time
Traveled:
61nm/0:35
Distance/Time
To Go:
Arrived

Flight Plot

Page will automatically refresh every two minutes.

Flight plan parsing failed; only flown route is shown


Map Options




Map Legend


Flown Route
Filed Route
Departure Airport
Arrival Airport
Navaid (VOR, NDB)
Fix

Horizontal Profiles

Position Reports

Time Latitude Longitude Heading Altitude Ground
Speed
25-Feb-19 17:23 34.591633 -117.368230 0 2854ft 0kts
25-Feb-19 17:24 34.591653 -117.368229 0 2854ft 2kts
25-Feb-19 17:25 34.592808 -117.367360 51 2854ft 10kts
25-Feb-19 17:26 34.596232 -117.366516 10 2854ft 13kts
25-Feb-19 17:27 34.599429 -117.366160 335 2854ft 6kts
25-Feb-19 17:28 34.599538 -117.366220 335 2854ft 0kts
25-Feb-19 17:29 34.599542 -117.366222 335 2854ft 0kts
25-Feb-19 17:30 34.599546 -117.366224 335 2854ft 0kts
25-Feb-19 17:31 34.596096 -117.371550 217 2920ft 73kts
25-Feb-19 17:32 34.579403 -117.389524 224 3688ft 83kts
25-Feb-19 17:33 34.556001 -117.395986 187 4342ft 93kts
25-Feb-19 17:34 34.528473 -117.398773 189 4858ft 103kts
25-Feb-19 17:35 34.522625 -117.399547 189 4961ft 104kts
25-Feb-19 17:40 34.369424 -117.437991 0 7642ft 0kts
25-Feb-19 17:42 34.302157 -117.487677 194 7360ft 143kts
25-Feb-19 17:43 34.265547 -117.477139 153 7491ft 134kts
25-Feb-19 17:44 34.234231 -117.451654 144 7536ft 139kts
25-Feb-19 17:45 34.204192 -117.425040 169 7534ft 125kts
25-Feb-19 17:46 34.180456 -117.445288 249 7541ft 118kts
25-Feb-19 17:47 34.168366 -117.484503 249 7526ft 127kts
25-Feb-19 17:48 34.148418 -117.520098 231 7524ft 129kts
25-Feb-19 17:49 34.120273 -117.547407 219 7525ft 129kts
25-Feb-19 17:50 34.090835 -117.572368 204 7524ft 131kts
25-Feb-19 17:51 34.057342 -117.588818 205 7521ft 128kts
25-Feb-19 17:52 34.026315 -117.608834 211 7525ft 125kts
25-Feb-19 17:53 33.995773 -117.628989 211 7541ft 124kts
25-Feb-19 17:54 33.964036 -117.647731 210 7545ft 129kts
25-Feb-19 17:55 33.931725 -117.668374 218 7159ft 144kts
25-Feb-19 17:56 33.897493 -117.694917 217 6660ft 146kts
25-Feb-19 17:57 33.863403 -117.721546 216 6098ft 147kts
25-Feb-19 17:58 33.828521 -117.748833 217 5400ft 146kts
25-Feb-19 17:59 33.801488 -117.769967 217 4646ft 100kts
25-Feb-19 18:00 33.780749 -117.789416 223 4123ft 100kts
25-Feb-19 18:01 33.755462 -117.811878 189 3420ft 116kts
25-Feb-19 18:02 33.758098 -117.795991 289 3112ft 119kts
25-Feb-19 18:03 33.737011 -117.825530 221 2115ft 107kts
25-Feb-19 18:04 33.713899 -117.843375 207 1009ft 98kts
25-Feb-19 18:05 33.691536 -117.857067 207 428ft 78kts
25-Feb-19 18:06 33.676733 -117.866345 207 59ft 20kts
25-Feb-19 18:07 33.674163 -117.868159 264 59ft 5kts
25-Feb-19 18:08 33.674423 -117.868510 342 59ft 0kts
25-Feb-19 18:09 33.675207 -117.868814 343 59ft 9kts
25-Feb-19 18:10 33.675787 -117.870272 214 59ft 6kts
25-Feb-19 18:11 33.673721 -117.871589 208 59ft 12kts
25-Feb-19 18:12 33.671220 -117.873166 207 59ft 7kts
25-Feb-19 18:13 33.669034 -117.874552 221 59ft 3kts
25-Feb-19 18:14 33.669156 -117.875028 296 59ft 0kts
25-Feb-19 18:15 33.669249 -117.875235 298 59ft 0kts
25-Feb-19 18:16 33.669250 -117.875237 298 59ft 0kts
25-Feb-19 18:17 33.669296 -117.875108 208 59ft 0kts
25-Feb-19 18:18 33.669296 -117.875108 208 59ft 0kts
25-Feb-19 18:19 33.669296 -117.875108 208 59ft 0kts
25-Feb-19 18:20 33.669296 -117.875108 208 59ft 0kts

Navigation Log

Ident Type
Flight plan parsing failed, navigation log unavailable